Moxee City, Washington
Current Conditions -  °F | °C
As of 8:56 PM on Monday 20 Oct 2014 (Local Time) from K1YT Reporting Station
Broken Clouds Broken Clouds  
Wind Chill: 54°   Ceiling: 18000
Heat Index: 54°   Visibility: 10mi
Dew Point: 46°   Wind: 6mph
Humidity: 75%   Direction: 310°NW
Pressure: 29.82"   Gusts: NA
Location:  46.5157°N, 120.098°W
Report Text: K1YT 210356Z AUTO 31005KT 10SM SCT060 BKN180 12/08 A2982 RMK AO2 SLPNO T01210077
Loading
Personal Weather Stations






























Interactive Weather Map
Tropical Storm Tracking
New forecast layout! Learn more

10-Day Weather Forecast

Advertisements
Track Severe Weather on mobile